sensor_id;sensor_type;location;lat;lon;timestamp;pressure;altitude;pressure_sealevel;temperature;humidity
20696;BME280;10507;52.754;13.040;2023-05-23T00:01:22;100266.84;;;17.50;65.94
20696;BME280;10507;52.754;13.040;2023-05-23T00:03:53;100270.19;;;17.42;67.01
20696;BME280;10507;52.754;13.040;2023-05-23T00:06:22;100282.47;;;17.35;66.91
20696;BME280;10507;52.754;13.040;2023-05-23T00:08:50;100283.75;;;17.31;67.18
20696;BME280;10507;52.754;13.040;2023-05-23T00:11:19;100310.50;;;17.23;68.08
20696;BME280;10507;52.754;13.040;2023-05-23T00:13:52;100326.72;;;17.12;69.05
20696;BME280;10507;52.754;13.040;2023-05-23T00:16:20;100339.13;;;17.03;70.17
20696;BME280;10507;52.754;13.040;2023-05-23T00:18:48;100311.06;;;16.94;69.68
20696;BME280;10507;52.754;13.040;2023-05-23T00:21:18;100312.81;;;16.84;69.55
20696;BME280;10507;52.754;13.040;2023-05-23T00:23:46;100321.75;;;16.73;69.93
20696;BME280;10507;52.754;13.040;2023-05-23T00:26:15;100313.78;;;16.60;70.03
20696;BME280;10507;52.754;13.040;2023-05-23T00:28:43;100313.91;;;16.48;70.15
20696;BME280;10507;52.754;13.040;2023-05-23T00:31:11;100328.47;;;16.34;70.82
20696;BME280;10507;52.754;13.040;2023-05-23T00:33:39;100375.25;;;16.21;72.62
20696;BME280;10507;52.754;13.040;2023-05-23T00:36:07;100351.50;;;16.15;71.73
20696;BME280;10507;52.754;13.040;2023-05-23T00:38:36;100358.34;;;16.08;72.31
20696;BME280;10507;52.754;13.040;2023-05-23T00:41:05;100410.09;;;16.00;73.80
20696;BME280;10507;52.754;13.040;2023-05-23T00:43:32;100428.53;;;15.94;74.65
20696;BME280;10507;52.754;13.040;2023-05-23T00:46:00;100417.53;;;15.86;74.37
20696;BME280;10507;52.754;13.040;2023-05-23T00:48:28;100430.59;;;15.79;74.89
20696;BME280;10507;52.754;13.040;2023-05-23T00:50:56;100444.91;;;15.67;75.72
20696;BME280;10507;52.754;13.040;2023-05-23T00:53:24;100442.16;;;15.55;76.24
20696;BME280;10507;52.754;13.040;2023-05-23T00:55:54;100447.47;;;15.44;76.26
20696;BME280;10507;52.754;13.040;2023-05-23T00:58:22;100447.22;;;15.36;76.67
20696;BME280;10507;52.754;13.040;2023-05-23T01:00:51;100449.00;;;15.35;76.30
20696;BME280;10507;52.754;13.040;2023-05-23T01:03:20;100425.44;;;15.39;75.49
20696;BME280;10507;52.754;13.040;2023-05-23T01:05:50;100433.84;;;15.34;75.57
20696;BME280;10507;52.754;13.040;2023-05-23T01:08:19;100431.69;;;15.39;75.36
20696;BME280;10507;52.754;13.040;2023-05-23T01:10:48;100441.69;;;15.37;75.72
20696;BME280;10507;52.754;13.040;2023-05-23T01:13:21;100438.06;;;15.26;76.72
20696;BME280;10507;52.754;13.040;2023-05-23T01:15:55;100435.38;;;15.26;76.53
20696;BME280;10507;52.754;13.040;2023-05-23T01:18:32;100451.63;;;15.24;76.95
20696;BME280;10507;52.754;13.040;2023-05-23T01:21:06;100459.94;;;15.21;77.73
20696;BME280;10507;52.754;13.040;2023-05-23T01:24:08;100484.47;;;15.16;78.50
20696;BME280;10507;52.754;13.040;2023-05-23T01:26:53;100473.38;;;15.08;78.58
20696;BME280;10507;52.754;13.040;2023-05-23T01:29:31;100466.66;;;15.03;78.92
20696;BME280;10507;52.754;13.040;2023-05-23T01:32:03;100479.34;;;15.01;78.95
20696;BME280;10507;52.754;13.040;2023-05-23T01:34:34;100478.59;;;14.99;79.37
20696;BME280;10507;52.754;13.040;2023-05-23T01:37:07;100473.72;;;15.04;79.17
20696;BME280;10507;52.754;13.040;2023-05-23T01:39:35;100479.09;;;15.04;79.59
20696;BME280;10507;52.754;13.040;2023-05-23T01:42:03;100468.16;;;15.07;79.27
20696;BME280;10507;52.754;13.040;2023-05-23T01:44:34;100459.63;;;15.13;79.15
20696;BME280;10507;52.754;13.040;2023-05-23T01:47:03;100450.34;;;15.17;78.87
20696;BME280;10507;52.754;13.040;2023-05-23T01:49:32;100442.28;;;15.17;78.84
20696;BME280;10507;52.754;13.040;2023-05-23T01:52:02;100467.34;;;15.17;80.19
20696;BME280;10507;52.754;13.040;2023-05-23T01:54:31;100487.56;;;15.23;80.96
20696;BME280;10507;52.754;13.040;2023-05-23T01:57:01;100436.91;;;15.17;79.27
20696;BME280;10507;52.754;13.040;2023-05-23T01:59:29;100401.63;;;15.09;78.76
20696;BME280;10507;52.754;13.040;2023-05-23T02:01:58;100410.94;;;15.05;78.38
20696;BME280;10507;52.754;13.040;2023-05-23T02:04:26;100426.31;;;15.03;79.20
20696;BME280;10507;52.754;13.040;2023-05-23T02:06:58;100434.56;;;15.00;79.54
20696;BME280;10507;52.754;13.040;2023-05-23T02:09:26;100469.84;;;14.95;81.26
20696;BME280;10507;52.754;13.040;2023-05-23T02:11:54;100469.34;;;14.90;81.10
20696;BME280;10507;52.754;13.040;2023-05-23T02:14:22;100459.25;;;14.93;80.66
20696;BME280;10507;52.754;13.040;2023-05-23T02:16:51;100456.41;;;14.95;80.59
20696;BME280;10507;52.754;13.040;2023-05-23T02:19:21;100485.13;;;14.94;81.26
20696;BME280;10507;52.754;13.040;2023-05-23T02:21:49;100499.34;;;14.96;81.69
20696;BME280;10507;52.754;13.040;2023-05-23T02:24:17;100461.59;;;14.98;80.51
20696;BME280;10507;52.754;13.040;2023-05-23T02:26:45;100457.81;;;15.01;80.40
20696;BME280;10507;52.754;13.040;2023-05-23T02:29:13;100428.88;;;15.04;79.04
20696;BME280;10507;52.754;13.040;2023-05-23T02:31:41;100405.97;;;15.11;78.30
20696;BME280;10507;52.754;13.040;2023-05-23T02:34:09;100388.50;;;15.17;77.45
20696;BME280;10507;52.754;13.040;2023-05-23T02:36:39;100439.41;;;15.20;79.12
20696;BME280;10507;52.754;13.040;2023-05-23T02:39:06;100452.84;;;15.20;79.82
20696;BME280;10507;52.754;13.040;2023-05-23T02:41:34;100444.03;;;15.18;79.75
20696;BME280;10507;52.754;13.040;2023-05-23T02:44:03;100445.09;;;15.15;80.01
20696;BME280;10507;52.754;13.040;2023-05-23T02:46:30;100432.84;;;15.11;79.78
20696;BME280;10507;52.754;13.040;2023-05-23T02:48:59;100412.41;;;15.09;79.71
20696;BME280;10507;52.754;13.040;2023-05-23T02:51:26;100431.97;;;15.11;80.04
20696;BME280;10507;52.754;13.040;2023-05-23T02:53:56;100434.97;;;15.19;79.83
20696;BME280;10507;52.754;13.040;2023-05-23T02:56:24;100419.69;;;15.20;79.78
20696;BME280;10507;52.754;13.040;2023-05-23T02:58:52;100426.47;;;15.25;79.32
20696;BME280;10507;52.754;13.040;2023-05-23T03:01:20;100407.75;;;15.24;79.30
20696;BME280;10507;52.754;13.040;2023-05-23T03:03:48;100420.84;;;15.28;79.30
20696;BME280;10507;52.754;13.040;2023-05-23T03:06:16;100425.28;;;15.29;79.73
20696;BME280;10507;52.754;13.040;2023-05-23T03:08:45;100428.50;;;15.22;80.20
20696;BME280;10507;52.754;13.040;2023-05-23T03:11:14;100458.59;;;15.27;80.91
20696;BME280;10507;52.754;13.040;2023-05-23T03:13:42;100452.84;;;15.20;81.07
20696;BME280;10507;52.754;13.040;2023-05-23T03:16:10;100423.56;;;15.15;80.32
20696;BME280;10507;52.754;13.040;2023-05-23T03:18:38;100413.69;;;15.16;80.18
20696;BME280;10507;52.754;13.040;2023-05-23T03:21:07;100407.91;;;15.09;79.94
20696;BME280;10507;52.754;13.040;2023-05-23T03:23:35;100410.94;;;15.05;80.33
20696;BME280;10507;52.754;13.040;2023-05-23T03:26:03;100427.06;;;15.05;81.00
20696;BME280;10507;52.754;13.040;2023-05-23T03:28:33;100442.22;;;15.06;81.07
20696;BME280;10507;52.754;13.040;2023-05-23T03:31:01;100462.03;;;15.05;81.61
20696;BME280;10507;52.754;13.040;2023-05-23T03:33:29;100485.34;;;15.04;82.80
20696;BME280;10507;52.754;13.040;2023-05-23T03:35:57;100500.63;;;15.04;83.05
20696;BME280;10507;52.754;13.040;2023-05-23T03:38:25;100503.31;;;15.04;83.49
20696;BME280;10507;52.754;13.040;2023-05-23T03:40:54;100491.03;;;15.00;83.55
20696;BME280;10507;52.754;13.040;2023-05-23T03:43:21;100460.28;;;14.91;83.18
20696;BME280;10507;52.754;13.040;2023-05-23T03:45:51;100485.56;;;14.88;83.61
20696;BME280;10507;52.754;13.040;2023-05-23T03:48:19;100504.84;;;14.82;84.29
20696;BME280;10507;52.754;13.040;2023-05-23T03:50:47;100484.28;;;14.81;84.41
20696;BME280;10507;52.754;13.040;2023-05-23T03:53:15;100473.09;;;14.87;83.58
20696;BME280;10507;52.754;13.040;2023-05-23T03:55:43;100459.44;;;14.90;82.25
20696;BME280;10507;52.754;13.040;2023-05-23T03:58:11;100455.56;;;14.94;82.46
20696;BME280;10507;52.754;13.040;2023-05-23T04:00:39;100465.38;;;14.95;82.72
20696;BME280;10507;52.754;13.040;2023-05-23T04:03:08;100471.47;;;14.97;83.01
20696;BME280;10507;52.754;13.040;2023-05-23T04:05:40;100503.44;;;15.02;83.91
20696;BME280;10507;52.754;13.040;2023-05-23T04:08:08;100540.63;;;15.08;85.31
20696;BME280;10507;52.754;13.040;2023-05-23T04:10:37;100507.25;;;15.11;84.27
20696;BME280;10507;52.754;13.040;2023-05-23T04:13:05;100482.22;;;15.10;83.66
20696;BME280;10507;52.754;13.040;2023-05-23T04:15:33;100488.16;;;15.03;84.81
20696;BME280;10507;52.754;13.040;2023-05-23T04:18:01;100507.94;;;15.02;85.45
20696;BME280;10507;52.754;13.040;2023-05-23T04:20:30;100520.19;;;15.06;86.34
20696;BME280;10507;52.754;13.040;2023-05-23T04:22:58;100555.47;;;15.14;88.35
20696;BME280;10507;52.754;13.040;2023-05-23T04:25:26;100552.56;;;15.17;88.91
20696;BME280;10507;52.754;13.040;2023-05-23T04:27:54;100529.44;;;15.14;89.62
20696;BME280;10507;52.754;13.040;2023-05-23T04:30:22;100517.50;;;15.18;89.02
20696;BME280;10507;52.754;13.040;2023-05-23T04:32:50;100534.16;;;15.24;89.95
20696;BME280;10507;52.754;13.040;2023-05-23T04:35:19;100536.09;;;15.34;90.14
20696;BME280;10507;52.754;13.040;2023-05-23T04:37:48;100513.56;;;15.48;89.41
20696;BME280;10507;52.754;13.040;2023-05-23T04:40:16;100508.69;;;15.53;89.21
20696;BME280;10507;52.754;13.040;2023-05-23T04:42:44;100452.72;;;15.58;86.95
20696;BME280;10507;52.754;13.040;2023-05-23T04:45:12;100399.28;;;15.65;85.44
20696;BME280;10507;52.754;13.040;2023-05-23T04:47:40;100404.00;;;15.74;84.92
20696;BME280;10507;52.754;13.040;2023-05-23T04:50:10;100374.06;;;15.79;82.96
20696;BME280;10507;52.754;13.040;2023-05-23T04:52:38;100345.88;;;15.72;82.53
20696;BME280;10507;52.754;13.040;2023-05-23T04:55:08;100399.41;;;15.64;83.87
20696;BME280;10507;52.754;13.040;2023-05-23T04:57:36;100383.84;;;15.56;83.87
20696;BME280;10507;52.754;13.040;2023-05-23T05:00:05;100421.63;;;15.54;85.10
20696;BME280;10507;52.754;13.040;2023-05-23T05:02:36;100438.38;;;15.58;84.96
20696;BME280;10507;52.754;13.040;2023-05-23T05:05:05;100466.44;;;15.67;85.71
20696;BME280;10507;52.754;13.040;2023-05-23T05:07:33;100511.03;;;15.71;86.92
20696;BME280;10507;52.754;13.040;2023-05-23T05:10:02;100519.31;;;15.68;87.99
20696;BME280;10507;52.754;13.040;2023-05-23T05:12:32;100532.47;;;15.72;88.64
20696;BME280;10507;52.754;13.040;2023-05-23T05:15:01;100533.72;;;15.79;88.58
20696;BME280;10507;52.754;13.040;2023-05-23T05:17:29;100517.59;;;15.79;88.59
20696;BME280;10507;52.754;13.040;2023-05-23T05:20:02;100511.44;;;15.77;88.71
20696;BME280;10507;52.754;13.040;2023-05-23T05:22:34;100499.19;;;15.73;88.11
20696;BME280;10507;52.754;13.040;2023-05-23T05:25:02;100475.59;;;15.64;87.66
20696;BME280;10507;52.754;13.040;2023-05-23T05:27:33;100484.13;;;15.71;87.72
20696;BME280;10507;52.754;13.040;2023-05-23T05:30:05;100507.56;;;15.82;88.04
20696;BME280;10507;52.754;13.040;2023-05-23T05:32:33;100498.72;;;15.79;88.16
20696;BME280;10507;52.754;13.040;2023-05-23T05:35:02;100499.03;;;15.88;87.89
20696;BME280;10507;52.754;13.040;2023-05-23T05:37:30;100472.84;;;15.90;87.16
20696;BME280;10507;52.754;13.040;2023-05-23T05:39:58;100458.66;;;15.88;87.33
20696;BME280;10507;52.754;13.040;2023-05-23T05:42:33;100490.81;;;15.89;87.51
20696;BME280;10507;52.754;13.040;2023-05-23T05:45:01;100479.69;;;15.94;87.41
20696;BME280;10507;52.754;13.040;2023-05-23T05:47:28;100478.75;;;15.95;87.01
20696;BME280;10507;52.754;13.040;2023-05-23T05:49:57;100507.44;;;16.07;87.60
20696;BME280;10507;52.754;13.040;2023-05-23T05:52:24;100501.34;;;16.16;87.61
20696;BME280;10507;52.754;13.040;2023-05-23T05:54:52;100511.56;;;16.24;87.41
20696;BME280;10507;52.754;13.040;2023-05-23T05:57:20;100525.56;;;16.40;87.03
20696;BME280;10507;52.754;13.040;2023-05-23T05:59:50;100489.72;;;16.51;85.80
20696;BME280;10507;52.754;13.040;2023-05-23T06:02:20;100446.13;;;16.57;84.36
20696;BME280;10507;52.754;13.040;2023-05-23T06:04:48;100453.47;;;16.67;85.02
20696;BME280;10507;52.754;13.040;2023-05-23T06:07:16;100548.09;;;16.75;88.51
20696;BME280;10507;52.754;13.040;2023-05-23T06:09:44;100557.03;;;16.64;90.00
20696;BME280;10507;52.754;13.040;2023-05-23T06:12:12;100564.75;;;16.69;91.08
20696;BME280;10507;52.754;13.040;2023-05-23T06:14:40;100561.44;;;16.76;90.86
20696;BME280;10507;52.754;13.040;2023-05-23T06:17:09;100517.69;;;16.61;88.92
20696;BME280;10507;52.754;13.040;2023-05-23T06:19:37;100535.09;;;16.69;89.49
20696;BME280;10507;52.754;13.040;2023-05-23T06:22:05;100557.56;;;16.80;89.94
20696;BME280;10507;52.754;13.040;2023-05-23T06:24:33;100550.34;;;16.81;90.33
20696;BME280;10507;52.754;13.040;2023-05-23T06:27:01;100544.72;;;16.84;90.38
20696;BME280;10507;52.754;13.040;2023-05-23T06:29:28;100523.50;;;16.79;90.34
20696;BME280;10507;52.754;13.040;2023-05-23T06:31:57;100493.56;;;16.71;90.04
20696;BME280;10507;52.754;13.040;2023-05-23T06:34:26;100540.88;;;16.75;90.95
20696;BME280;10507;52.754;13.040;2023-05-23T06:36:54;100542.81;;;16.73;90.94
20696;BME280;10507;52.754;13.040;2023-05-23T06:39:22;100531.28;;;16.71;90.88
20696;BME280;10507;52.754;13.040;2023-05-23T06:41:50;100531.19;;;16.73;90.02
20696;BME280;10507;52.754;13.040;2023-05-23T06:44:18;100532.84;;;16.87;89.91
20696;BME280;10507;52.754;13.040;2023-05-23T06:46:45;100516.72;;;16.74;90.52
20696;BME280;10507;52.754;13.040;2023-05-23T06:49:14;100549.97;;;16.86;90.42
20696;BME280;10507;52.754;13.040;2023-05-23T06:51:43;100538.81;;;16.90;90.37
20696;BME280;10507;52.754;13.040;2023-05-23T06:54:11;100511.84;;;16.90;89.10
20696;BME280;10507;52.754;13.040;2023-05-23T06:56:39;100497.63;;;16.88;88.96
20696;BME280;10507;52.754;13.040;2023-05-23T06:59:07;100536.03;;;17.03;89.08
20696;BME280;10507;52.754;13.040;2023-05-23T07:01:34;100500.13;;;17.02;88.99
20696;BME280;10507;52.754;13.040;2023-05-23T07:04:02;100502.56;;;17.06;88.30
20696;BME280;10507;52.754;13.040;2023-05-23T07:06:30;100477.69;;;17.02;87.76
20696;BME280;10507;52.754;13.040;2023-05-23T07:08:59;100483.81;;;17.04;88.26
20696;BME280;10507;52.754;13.040;2023-05-23T07:11:27;100521.97;;;17.22;88.11
20696;BME280;10507;52.754;13.040;2023-05-23T07:13:55;100496.19;;;17.29;87.38
20696;BME280;10507;52.754;13.040;2023-05-23T07:16:23;100524.84;;;17.64;86.87
20696;BME280;10507;52.754;13.040;2023-05-23T07:18:51;100514.75;;;17.77;86.89
20696;BME280;10507;52.754;13.040;2023-05-23T07:21:19;100488.28;;;17.82;86.00
20696;BME280;10507;52.754;13.040;2023-05-23T07:23:47;100476.69;;;17.92;85.29
20696;BME280;10507;52.754;13.040;2023-05-23T07:26:16;100500.34;;;18.32;84.17
20696;BME280;10507;52.754;13.040;2023-05-23T07:28:44;100451.50;;;18.44;82.52
20696;BME280;10507;52.754;13.040;2023-05-23T07:31:12;100500.75;;;18.69;83.08
20696;BME280;10507;52.754;13.040;2023-05-23T07:33:40;100517.19;;;18.98;82.95
20696;BME280;10507;52.754;13.040;2023-05-23T07:36:09;100449.88;;;19.15;81.64
20696;BME280;10507;52.754;13.040;2023-05-23T07:38:37;100491.44;;;19.44;81.14
20696;BME280;10507;52.754;13.040;2023-05-23T07:41:04;100454.94;;;19.89;78.92
20696;BME280;10507;52.754;13.040;2023-05-23T07:43:39;100449.78;;;20.25;78.13
20696;BME280;10507;52.754;13.040;2023-05-23T07:46:07;100405.34;;;20.35;77.09
20696;BME280;10507;52.754;13.040;2023-05-23T07:48:35;100461.06;;;20.96;76.50
20696;BME280;10507;52.754;13.040;2023-05-23T07:51:03;100387.91;;;21.23;74.87
20696;BME280;10507;52.754;13.040;2023-05-23T07:53:31;100274.38;;;20.90;74.84
20696;BME280;10507;52.754;13.040;2023-05-23T07:55:59;100413.44;;;21.57;74.68
20696;BME280;10507;52.754;13.040;2023-05-23T07:58:27;100209.53;;;21.41;73.00
20696;BME280;10507;52.754;13.040;2023-05-23T08:00:56;100225.00;;;21.41;72.98
20696;BME280;10507;52.754;13.040;2023-05-23T08:03:25;100227.00;;;21.03;74.37
20696;BME280;10507;52.754;13.040;2023-05-23T08:05:53;100342.72;;;21.49;75.18
20696;BME280;10507;52.754;13.040;2023-05-23T08:08:21;100274.03;;;21.57;73.99
20696;BME280;10507;52.754;13.040;2023-05-23T08:10:49;100328.13;;;21.86;73.60
20696;BME280;10507;52.754;13.040;2023-05-23T08:13:17;100283.00;;;22.01;72.78
20696;BME280;10507;52.754;13.040;2023-05-23T08:15:45;100304.72;;;22.46;70.92
20696;BME280;10507;52.754;13.040;2023-05-23T08:18:15;100302.84;;;22.89;70.00
20696;BME280;10507;52.754;13.040;2023-05-23T08:20:43;100394.97;;;23.44;69.91
20696;BME280;10507;52.754;13.040;2023-05-23T08:23:11;100337.75;;;23.52;69.73
20696;BME280;10507;52.754;13.040;2023-05-23T08:25:39;100223.63;;;23.33;68.98
20696;BME280;10507;52.754;13.040;2023-05-23T08:28:07;100110.00;;;22.35;70.92
20696;BME280;10507;52.754;13.040;2023-05-23T08:30:35;100162.66;;;22.26;71.84
20696;BME280;10507;52.754;13.040;2023-05-23T08:33:03;100194.81;;;22.22;72.45
20696;BME280;10507;52.754;13.040;2023-05-23T08:35:34;100273.22;;;22.77;71.35
20696;BME280;10507;52.754;13.040;2023-05-23T08:38:05;100186.78;;;22.79;70.70
20696;BME280;10507;52.754;13.040;2023-05-23T08:40:38;100143.53;;;22.60;70.98
20696;BME280;10507;52.754;13.040;2023-05-23T08:43:08;100144.66;;;22.33;71.64
20696;BME280;10507;52.754;13.040;2023-05-23T08:45:38;100247.66;;;22.70;71.64
20696;BME280;10507;52.754;13.040;2023-05-23T08:48:08;100248.22;;;22.74;72.31
20696;BME280;10507;52.754;13.040;2023-05-23T08:50:38;100292.66;;;22.91;72.80
20696;BME280;10507;52.754;13.040;2023-05-23T08:53:08;100326.06;;;23.09;72.70
20696;BME280;10507;52.754;13.040;2023-05-23T08:55:36;100200.53;;;22.53;72.95
20696;BME280;10507;52.754;13.040;2023-05-23T08:58:05;100253.94;;;22.62;73.50
20696;BME280;10507;52.754;13.040;2023-05-23T09:00:33;100243.97;;;22.37;74.37
20696;BME280;10507;52.754;13.040;2023-05-23T09:03:01;100256.97;;;22.59;73.03
20696;BME280;10507;52.754;13.040;2023-05-23T09:05:29;100171.41;;;22.46;71.78
20696;BME280;10507;52.754;13.040;2023-05-23T09:07:58;100171.25;;;22.55;71.71
20696;BME280;10507;52.754;13.040;2023-05-23T09:10:27;100090.47;;;21.97;72.14
20696;BME280;10507;52.754;13.040;2023-05-23T09:12:55;100154.44;;;22.09;72.12
20696;BME280;10507;52.754;13.040;2023-05-23T09:15:24;100213.84;;;22.22;72.47
20696;BME280;10507;52.754;13.040;2023-05-23T09:17:58;100275.13;;;22.51;72.83
20696;BME280;10507;52.754;13.040;2023-05-23T09:20:27;100249.41;;;22.71;71.95
20696;BME280;10507;52.754;13.040;2023-05-23T09:22:55;100311.34;;;22.86;72.76
20696;BME280;10507;52.754;13.040;2023-05-23T09:25:24;100333.06;;;23.03;73.21
20696;BME280;10507;52.754;13.040;2023-05-23T09:27:52;100332.00;;;22.96;74.17
20696;BME280;10507;52.754;13.040;2023-05-23T09:30:21;100280.81;;;23.08;72.65
20696;BME280;10507;52.754;13.040;2023-05-23T09:32:57;100317.28;;;23.23;72.64
20696;BME280;10507;52.754;13.040;2023-05-23T09:35:31;100260.38;;;23.04;73.11
20696;BME280;10507;52.754;13.040;2023-05-23T09:37:59;100280.69;;;23.34;71.55
20696;BME280;10507;52.754;13.040;2023-05-23T09:40:31;100246.97;;;23.60;69.73
20696;BME280;10507;52.754;13.040;2023-05-23T09:43:03;100218.88;;;23.43;70.88
20696;BME280;10507;52.754;13.040;2023-05-23T09:45:33;100246.63;;;23.55;70.64
20696;BME280;10507;52.754;13.040;2023-05-23T09:48:01;100241.16;;;23.63;70.54
20696;BME280;10507;52.754;13.040;2023-05-23T09:50:30;100168.59;;;23.62;69.51
20696;BME280;10507;52.754;13.040;2023-05-23T09:52:59;100276.44;;;23.89;69.96
20696;BME280;10507;52.754;13.040;2023-05-23T09:55:27;100285.31;;;23.99;69.45
20696;BME280;10507;52.754;13.040;2023-05-23T09:57:58;100108.13;;;23.75;68.70
20696;BME280;10507;52.754;13.040;2023-05-23T10:00:26;100210.16;;;23.64;70.57
20696;BME280;10507;52.754;13.040;2023-05-23T10:02:59;100312.53;;;24.16;70.37
20696;BME280;10507;52.754;13.040;2023-05-23T10:05:36;100198.72;;;23.93;71.13
20696;BME280;10507;52.754;13.040;2023-05-23T10:08:07;100245.78;;;23.79;72.71
20696;BME280;10507;52.754;13.040;2023-05-23T10:13:55;100305.75;;;23.54;73.91
20696;BME280;10507;52.754;13.040;2023-05-23T10:16:27;100225.84;;;23.37;73.51
20696;BME280;10507;52.754;13.040;2023-05-23T10:19:08;100229.38;;;22.46;76.37
20696;BME280;10507;52.754;13.040;2023-05-23T10:21:43;100251.63;;;22.41;76.30
20696;BME280;10507;52.754;13.040;2023-05-23T10:24:13;100373.97;;;22.51;77.96
20696;BME280;10507;52.754;13.040;2023-05-23T10:26:42;100419.06;;;22.88;77.10
20696;BME280;10507;52.754;13.040;2023-05-23T10:29:12;100352.31;;;22.41;78.20
20696;BME280;10507;52.754;13.040;2023-05-23T10:31:40;100408.44;;;22.42;78.71
20696;BME280;10507;52.754;13.040;2023-05-23T10:34:14;100432.97;;;22.25;79.91
20696;BME280;10507;52.754;13.040;2023-05-23T10:36:51;100493.41;;;22.36;80.65
20696;BME280;10507;52.754;13.040;2023-05-23T10:39:30;100433.53;;;22.36;79.19
20696;BME280;10507;52.754;13.040;2023-05-23T10:42:02;100421.50;;;22.21;79.72
20696;BME280;10507;52.754;13.040;2023-05-23T10:44:35;100456.00;;;22.03;80.77
20696;BME280;10507;52.754;13.040;2023-05-23T10:47:03;100448.78;;;21.57;82.62
20696;BME280;10507;52.754;13.040;2023-05-23T10:49:38;100483.97;;;21.49;82.76
20696;BME280;10507;52.754;13.040;2023-05-23T10:52:07;100485.78;;;21.58;83.03
20696;BME280;10507;52.754;13.040;2023-05-23T10:54:38;100493.44;;;21.45;83.59
20696;BME280;10507;52.754;13.040;2023-05-23T10:57:09;100559.66;;;21.72;83.94
20696;BME280;10507;52.754;13.040;2023-05-23T10:59:39;100561.47;;;21.81;83.20
20696;BME280;10507;52.754;13.040;2023-05-23T11:02:12;100566.19;;;21.79;83.46
20696;BME280;10507;52.754;13.040;2023-05-23T11:04:41;100585.41;;;22.23;82.53
20696;BME280;10507;52.754;13.040;2023-05-23T11:07:27;100455.22;;;21.74;81.48
20696;BME280;10507;52.754;13.040;2023-05-23T11:10:03;100526.38;;;21.88;82.20
20696;BME280;10507;52.754;13.040;2023-05-23T11:12:38;100504.63;;;21.88;81.58
20696;BME280;10507;52.754;13.040;2023-05-23T11:15:21;100520.47;;;21.92;81.27
20696;BME280;10507;52.754;13.040;2023-05-23T11:17:51;100514.88;;;21.48;83.37
20696;BME280;10507;52.754;13.040;2023-05-23T11:20:20;100521.84;;;21.13;84.48
20696;BME280;10507;52.754;13.040;2023-05-23T11:22:54;100590.53;;;21.33;84.60
20696;BME280;10507;52.754;13.040;2023-05-23T11:25:39;100552.16;;;21.09;85.54
20696;BME280;10507;52.754;13.040;2023-05-23T11:28:08;100540.97;;;20.74;86.20
20696;BME280;10507;52.754;13.040;2023-05-23T11:30:38;100578.66;;;20.39;87.89
20696;BME280;10507;52.754;13.040;2023-05-23T11:33:08;100593.19;;;20.18;89.04
20696;BME280;10507;52.754;13.040;2023-05-23T11:35:39;100584.50;;;19.74;90.54
20696;BME280;10507;52.754;13.040;2023-05-23T11:38:08;100568.53;;;19.40;91.90
20696;BME280;10507;52.754;13.040;2023-05-23T11:40:38;100628.94;;;19.41;92.52
20696;BME280;10507;52.754;13.040;2023-05-23T11:43:08;100635.97;;;19.22;92.69
20696;BME280;10507;52.754;13.040;2023-05-23T11:45:38;100641.00;;;19.27;93.03
20696;BME280;10507;52.754;13.040;2023-05-23T11:48:07;100654.31;;;19.19;94.00
20696;BME280;10507;52.754;13.040;2023-05-23T11:50:43;100666.66;;;19.11;94.52
20696;BME280;10507;52.754;13.040;2023-05-23T11:53:11;100686.81;;;19.19;94.62
20696;BME280;10507;52.754;13.040;2023-05-23T11:55:40;100693.88;;;19.31;94.55
20696;BME280;10507;52.754;13.040;2023-05-23T11:58:14;100669.31;;;19.23;93.75
20696;BME280;10507;52.754;13.040;2023-05-23T12:00:44;100645.69;;;19.04;93.54
20696;BME280;10507;52.754;13.040;2023-05-23T12:03:13;100686.84;;;19.07;93.82
20696;BME280;10507;52.754;13.040;2023-05-23T12:05:42;100678.22;;;19.14;93.33
20696;BME280;10507;52.754;13.040;2023-05-23T12:08:11;100697.22;;;19.23;93.42
20696;BME280;10507;52.754;13.040;2023-05-23T12:10:58;100668.19;;;19.04;93.44
20696;BME280;10507;52.754;13.040;2023-05-23T12:13:28;100700.31;;;18.98;94.39
20696;BME280;10507;52.754;13.040;2023-05-23T12:15:59;100703.66;;;18.90;94.46
20696;BME280;10507;52.754;13.040;2023-05-23T12:18:29;100729.69;;;19.02;94.19
20696;BME280;10507;52.754;13.040;2023-05-23T12:20:59;100732.22;;;19.15;93.70
20696;BME280;10507;52.754;13.040;2023-05-23T12:23:29;100740.88;;;19.30;93.34
20696;BME280;10507;52.754;13.040;2023-05-23T12:26:03;100707.88;;;19.15;92.93
20696;BME280;10507;52.754;13.040;2023-05-23T12:28:36;100721.34;;;19.26;92.98
20696;BME280;10507;52.754;13.040;2023-05-23T12:31:10;100676.31;;;19.04;92.85
20696;BME280;10507;52.754;13.040;2023-05-23T12:33:38;100712.72;;;19.00;93.56
20696;BME280;10507;52.754;13.040;2023-05-23T12:36:09;100722.53;;;18.80;94.90
20696;BME280;10507;52.754;13.040;2023-05-23T12:38:37;100727.31;;;18.77;95.24
20696;BME280;10507;52.754;13.040;2023-05-23T12:41:07;100731.53;;;18.47;96.56
20696;BME280;10507;52.754;13.040;2023-05-23T12:43:37;100748.66;;;18.36;96.95
20696;BME280;10507;52.754;13.040;2023-05-23T12:46:05;100766.22;;;18.19;98.59
20696;BME280;10507;52.754;13.040;2023-05-23T12:48:34;100782.56;;;18.18;98.82
20696;BME280;10507;52.754;13.040;2023-05-23T12:51:02;100788.34;;;18.13;99.43
20696;BME280;10507;52.754;13.040;2023-05-23T12:53:30;100783.19;;;18.10;99.74
20696;BME280;10507;52.754;13.040;2023-05-23T12:55:58;100802.31;;;18.07;100.00